CDT,Max TemperatureF,Mean TemperatureF,Min TemperatureF,Max Dew PointF,MeanDew PointF,Min DewpointF,Max Humidity, Mean Humidity, Min Humidity, Max Sea Level PressureIn, Mean Sea Level PressureIn, Min Sea Level PressureIn, Max VisibilityMiles, Mean VisibilityMiles, Min VisibilityMiles, Max Wind SpeedMPH, Mean Wind SpeedMPH, Max Gust SpeedMPH,PrecipitationIn, CloudCover, Events, WindDirDegrees
2012-10-1,78,64,54,56,52,49,93,69,38,30.01,29.95,29.89,10,10,9,30,13,41,0.01,1,Rain-Thunderstorm,7
2012-10-2,73,62,51,50,43,32,86,56,24,30.07,29.99,29.92,10,10,10,15,12,17,0.00,0,,13
2012-10-3,82,66,50,53,47,41,74,53,30,29.95,29.91,29.85,10,10,10,21,12,31,0.00,0,,155
2012-10-4,64,59,54,54,45,40,87,61,51,30.23,30.13,29.92,10,10,10,34,19,41,0.00,6,,32
2012-10-5,64,56,48,42,38,33,61,53,39,30.25,30.18,30.12,10,10,10,23,19,30,0.00,4,,34
2012-10-6,48,46,42,33,30,27,68,56,44,30.38,30.29,30.23,10,10,10,26,20,32,0.00,7,,35
2012-10-7,46,40,35,33,30,27,85,66,46,30.39,30.32,30.25,10,10,10,17,10,,0.00,3,,48
2012-10-8,64,49,34,38,32,28,79,55,31,30.25,30.12,29.96,10,10,6,18,8,29,0.00,0,,193
2012-10-9,80,62,46,50,44,39,90,59,28,30.09,29.91,29.84,10,10,10,28,14,36,0.00,0,,145
2012-10-10,63,53,44,45,38,29,80,56,35,30.26,30.18,30.11,10,10,10,22,17,26,0.00,5,,71
2012-10-11,81,68,55,65,57,46,90,76,54,30.13,30.07,29.96,10,10,9,24,9,37,0.00,5,,172
2012-10-12,73,64,59,68,62,51,97,86,70,30.19,30.08,29.99,10,9,2,21,13,29,0.00,5,,89
2012-10-13,88,78,62,67,57,28,88,63,14,29.96,29.83,29.65,10,10,10,30,20,39,0.00,4,Rain-Thunderstorm,188
2012-10-14,81,68,54,44,40,36,64,41,20,30.13,30.03,29.82,10,10,10,22,14,32,0.00,0,,340
2012-10-15,86,68,53,43,41,38,64,40,20,30.12,30.00,29.86,10,10,10,20,10,29,0.00,0,,205
2012-10-16,86,70,55,54,48,43,70,49,26,29.85,29.65,29.49,10,10,10,17,12,22,0.00,0,,168
2012-10-17,75,62,50,55,37,23,78,39,16,29.87,29.62,29.38,10,10,10,34,18,44,0.00,0,,348
2012-10-18,70,56,42,28,23,17,53,32,15,30.07,30.00,29.89,10,10,10,24,11,31,0.00,0,,329
2012-10-19,77,60,43,33,22,16,38,25,12,30.04,29.95,29.83,10,10,10,20,12,28,0.00,0,,304
2012-10-20,81,66,51,53,43,33,72,46,31,29.82,29.73,29.67,10,10,10,15,9,20,0.00,0,,151
2012-10-21,95,77,59,62,49,30,90,51,10,29.72,29.68,29.62,10,10,8,25,13,36,0.00,0,,188
2012-10-22,82,74,66,64,59,51,90,65,38,29.86,29.78,29.72,10,10,10,31,17,48,0.00,0,,179
2012-10-23,90,76,62,65,61,56,93,68,33,29.82,29.77,29.72,10,10,10,24,14,36,0.00,0,,181
2012-10-24,84,72,64,65,64,61,94,78,58,29.88,29.78,29.65,10,8,2,28,19,39,0.00,3,,172
2012-10-25,71,56,41,61,42,31,81,63,42,30.25,29.97,29.65,10,10,10,33,22,45,0.00,2,,355
2012-10-26,51,42,33,31,25,21,82,59,33,30.48,30.39,30.27,10,10,10,26,17,33,0.00,1,,11
2012-10-27,51,38,25,25,22,20,85,57,31,30.42,30.33,30.22,10,10,10,14,8,,0.00,0,,63
2012-10-28,61,45,30,29,24,21,69,45,25,30.32,30.25,30.19,10,10,10,13,9,17,0.00,0,,156
2012-10-29,68,52,39,33,30,27,68,46,25,30.26,30.18,30.08,10,10,10,20,12,26,0.00,0,,181
2012-10-30,81,64,46,38,35,30,58,39,20,30.07,29.98,29.88,10,10,10,15,11,17,0.00,0,,229
2012-10-31,77,61,45,40,38,37,74,48,24,30.08,30.02,29.97,10,10,10,14,8,,0.00,0,,2